Terminal Aerodrome Forecast
Issued by NWS

Home | Current Version | Previous Version | Text Only | Print | Product List | Glossary On
Versions: 1 2 3 4 5 6 7 8 9 10 11 12 13 14 15 16 17 18 19
000
FTUS45 KRIW 311124
TAFCPR
TAF
KCPR 311124Z 3112/0112 VRB05KT P6SM VCSH BKN050
     FM311500 31008KT P6SM BKN050
     FM311800 31014G22KT P6SM SCT050
     FM010000 01011KT P6SM FEW060
     FM010400 06006KT P6SM SKC
     FM010900 VRB05KT P6SM SKC=

USA.gov is the U.S. government's official web portal to all federal, state and local government web resources and services.